»·PEaware :: AAL224 KLAS-KLAX

AAL224 :: KLAS-KLAX

FLIGHT INFORMATION

Flight Status: Arrived
Operator:
American Airlines
More flights by this operator :: More flights under this callsign
Pilot: Neil S. (31177)
Aircraft: Airbus A320neo
(A20N)
More flights by this aircraft type
Origin: KLAS McCarran Intl
United States
Destination: KLAX Los Angeles Intl
United States
More flights between these airports :: More routes between these airports
Route: +BOACH8 RIKII SHTNR ANJLL4+
File this flight plan on PilotEdge
Remarks:
Altitude:
(Current/Filed)
30,000ft
Speed:
(Current/Filed)
425kts
Departed: 01-Dec-20 02:30 PM
Arrived: 01-Dec-20 03:14 PM
Distance/Time
Traveled:
205nm/0:43
Distance/Time
To Go:
Arrived

Flight Plot

Page will automatically refresh every two minutes.

Flight plan parsing failed; only flown route is shown


Map Options




Map Legend


Flown Route
Filed Route
Departure Airport
Arrival Airport
Navaid (VOR, NDB)
Fix

Horizontal Profiles

Position Reports

Time Latitude Longitude Heading Altitude Ground
Speed
01-Dec-20 14:04 36.080875 -115.140178 134 2099ft 0kts
01-Dec-20 14:06 36.080875 -115.140178 134 2099ft 0kts
01-Dec-20 14:06 36.080875 -115.140178 134 2099ft 0kts
01-Dec-20 14:07 36.080875 -115.140178 134 2099ft 0kts
01-Dec-20 14:08 36.080875 -115.140178 134 2099ft 0kts
01-Dec-20 14:09 36.080875 -115.140178 134 2099ft 0kts
01-Dec-20 14:10 36.080875 -115.140178 134 2099ft 0kts
01-Dec-20 14:11 36.080875 -115.140178 134 2099ft 0kts
01-Dec-20 14:12 36.080875 -115.140178 134 2099ft 0kts
01-Dec-20 14:13 36.080875 -115.140178 134 2099ft 0kts
01-Dec-20 14:14 36.080875 -115.140178 134 2099ft 0kts
01-Dec-20 14:15 36.080875 -115.140178 134 2099ft 0kts
01-Dec-20 14:16 36.080875 -115.140178 134 2099ft 0kts
01-Dec-20 14:17 36.081440 -115.140735 181 2097ft 2kts
01-Dec-20 14:18 36.081503 -115.140737 178 2096ft 0kts
01-Dec-20 14:19 36.081503 -115.140737 178 2096ft 0kts
01-Dec-20 14:20 36.081503 -115.140737 178 2096ft 0kts
01-Dec-20 14:22 36.081503 -115.140737 178 2096ft 0kts
01-Dec-20 14:22 36.080991 -115.141238 223 2100ft 8kts
01-Dec-20 14:23 36.079046 -115.141573 179 2108ft 15kts
01-Dec-20 14:24 36.078273 -115.135248 90 2092ft 29kts
01-Dec-20 14:25 36.078268 -115.125719 90 2048ft 21kts
01-Dec-20 14:26 36.077429 -115.121432 138 2039ft 0kts
01-Dec-20 14:27 36.077429 -115.121432 138 2039ft 0kts
01-Dec-20 14:28 36.076731 -115.121257 186 2040ft 9kts
01-Dec-20 14:29 36.076384 -115.128823 269 2063ft 114kts
01-Dec-20 14:30 36.081685 -115.189839 271 4711ft 219kts
01-Dec-20 14:31 36.057752 -115.262370 213 6578ft 247kts
01-Dec-20 14:32 35.993746 -115.292629 195 6732ft 251kts
01-Dec-20 14:33 35.919221 -115.308489 186 8190ft 274kts
01-Dec-20 14:34 35.837747 -115.312231 177 12016ft 323kts
01-Dec-20 14:35 35.743435 -115.302647 174 15815ft 353kts
01-Dec-20 14:36 35.642975 -115.296431 180 18496ft 371kts
01-Dec-20 14:37 35.538634 -115.300588 188 18973ft 375kts
01-Dec-20 14:38 35.442638 -115.348320 209 18993ft 374kts
01-Dec-20 14:39 35.352875 -115.412297 210 19752ft 375kts
01-Dec-20 14:40 35.261080 -115.479104 210 22779ft 392kts
01-Dec-20 14:41 35.165570 -115.548277 210 25392ft 409kts
01-Dec-20 14:42 35.077100 -115.639243 225 27705ft 424kts
01-Dec-20 14:43 34.993862 -115.744390 226 29653ft 434kts
01-Dec-20 14:44 34.908925 -115.852865 226 29981ft 444kts
01-Dec-20 14:45 34.823840 -115.961058 226 29995ft 444kts
01-Dec-20 14:46 34.738394 -116.069605 226 29908ft 437kts
01-Dec-20 14:47 34.655935 -116.174446 226 26743ft 421kts
01-Dec-20 14:48 34.576676 -116.275015 226 24335ft 410kts
01-Dec-20 14:49 34.498884 -116.373460 226 24020ft 404kts
01-Dec-20 14:50 34.423431 -116.474186 235 24003ft 404kts
01-Dec-20 14:51 34.369499 -116.589718 243 24004ft 392kts
01-Dec-20 14:52 34.321799 -116.708269 244 23953ft 390kts
01-Dec-20 14:53 34.275183 -116.824216 243 21506ft 377kts
01-Dec-20 14:54 34.230243 -116.935675 244 19357ft 369kts
01-Dec-20 14:55 34.193405 -117.047973 251 17375ft 355kts
01-Dec-20 14:56 34.162987 -117.159900 251 16878ft 351kts
01-Dec-20 14:57 34.132986 -117.269796 251 14805ft 340kts
01-Dec-20 14:58 34.104371 -117.375248 252 13935ft 322kts
01-Dec-20 14:59 34.077565 -117.477906 250 12430ft 318kts
01-Dec-20 15:00 34.046147 -117.573955 246 11594ft 293kts
01-Dec-20 15:01 34.014617 -117.663389 250 10205ft 287kts
01-Dec-20 15:02 33.998423 -117.755322 263 9131ft 273kts
01-Dec-20 15:03 33.991137 -117.844107 263 8120ft 259kts
01-Dec-20 15:04 33.983037 -117.927902 262 6767ft 248kts
01-Dec-20 15:05 33.976420 -117.994303 262 5487ft 242kts
01-Dec-20 15:06 33.969216 -118.067178 263 4707ft 203kts
01-Dec-20 15:07 33.963050 -118.133804 262 3601ft 186kts
01-Dec-20 15:08 33.957342 -118.188466 262 3287ft 168kts
01-Dec-20 15:09 33.953141 -118.229419 262 2594ft 167kts
01-Dec-20 15:10 33.947671 -118.282617 262 1742ft 160kts
01-Dec-20 15:11 33.942758 -118.330495 262 978ft 133kts
01-Dec-20 15:12 33.938338 -118.373213 262 305ft 129kts
01-Dec-20 15:13 33.936089 -118.397613 277 125ft 30kts
01-Dec-20 15:14 33.936648 -118.400215 271 125ft 0kts
01-Dec-20 15:15 33.936246 -118.404410 263 125ft 19kts
01-Dec-20 15:16 33.937103 -118.409030 350 125ft 6kts
01-Dec-20 15:17 33.939028 -118.408110 13 125ft 5kts
01-Dec-20 15:18 33.940778 -118.408119 55 125ft 5kts
01-Dec-20 15:19 33.941033 -118.407441 69 125ft 0kts
01-Dec-20 15:20 33.941033 -118.407441 69 125ft 0kts
01-Dec-20 15:21 33.941033 -118.407441 69 125ft 0kts
01-Dec-20 15:22 33.941033 -118.407441 69 125ft 0kts
01-Dec-20 15:23 33.941033 -118.407441 69 125ft 0kts

Navigation Log

Ident Type
Flight plan parsing failed, navigation log unavailable